»·PEaware :: WAT169 KSAN-KLAS

WAT169 :: KSAN-KLAS

FLIGHT INFORMATION

Flight Status: Arrived
Operator:
Walker Air Transport
More flights by this operator :: More flights under this callsign
Pilot: Marty P. (27464)
Aircraft: Boeing 747-8
(B748)
More flights by this aircraft type
Origin: KSAN San Diego Intl-Lindbergh
United States
Destination: KLAS McCarran Intl
United States
More flights between these airports :: More routes between these airports
Route: +PADRZ2 CHKNN SEBBY YELAH MISEN KEPEC6
File this flight plan on PilotEdge
Remarks:
Altitude:
(Current/Filed)
33,000ft
Speed:
(Current/Filed)
480kts
Departed: 12-Sep-20 01:02 PM
Arrived: 12-Sep-20 01:52 PM
Distance/Time
Traveled:
225nm/0:50
Distance/Time
To Go:
Arrived

Flight Plot

Page will automatically refresh every two minutes.

Flight plan parsing failed; only flown route is shown


Map Options




Map Legend


Flown Route
Filed Route
Departure Airport
Arrival Airport
Navaid (VOR, NDB)
Fix

Horizontal Profiles

Position Reports

Time Latitude Longitude Heading Altitude Ground
Speed
12-Sep-20 12:31 32.733177 -117.207514 55 33ft 0kts
12-Sep-20 12:31 32.733177 -117.207514 55 33ft 0kts
12-Sep-20 12:32 32.733177 -117.207514 55 33ft 0kts
12-Sep-20 12:34 32.733177 -117.207514 55 32ft 0kts
12-Sep-20 12:34 32.733177 -117.207514 55 32ft 0kts
12-Sep-20 12:35 32.733177 -117.207514 55 32ft 0kts
12-Sep-20 12:36 32.733177 -117.207514 55 32ft 0kts
12-Sep-20 12:37 32.733177 -117.207514 55 32ft 0kts
12-Sep-20 12:38 32.733177 -117.207514 55 32ft 0kts
12-Sep-20 12:39 32.733177 -117.207514 55 32ft 0kts
12-Sep-20 12:40 32.733177 -117.207514 55 32ft 0kts
12-Sep-20 12:41 32.733177 -117.207514 55 32ft 0kts
12-Sep-20 12:42 32.733177 -117.207514 55 32ft 0kts
12-Sep-20 12:43 32.733177 -117.207514 55 32ft 0kts
12-Sep-20 12:44 32.733177 -117.207514 55 32ft 0kts
12-Sep-20 12:45 32.733177 -117.207514 55 32ft 0kts
12-Sep-20 12:46 32.733177 -117.207514 55 32ft 0kts
12-Sep-20 12:47 32.733177 -117.207514 55 32ft 0kts
12-Sep-20 12:48 32.733177 -117.207514 55 32ft 0kts
12-Sep-20 12:49 32.733177 -117.207514 55 32ft 0kts
12-Sep-20 12:50 32.733177 -117.207514 55 32ft 0kts
12-Sep-20 12:51 32.733177 -117.207514 55 32ft 0kts
12-Sep-20 12:52 32.733321 -117.207191 74 32ft 4kts
12-Sep-20 12:53 32.734540 -117.205572 18 32ft 0kts
12-Sep-20 12:54 32.735477 -117.204582 50 32ft 8kts
12-Sep-20 12:55 32.735603 -117.202406 103 32ft 3kts
12-Sep-20 12:56 32.734632 -117.198307 105 32ft 20kts
12-Sep-20 12:57 32.732853 -117.190990 105 32ft 23kts
12-Sep-20 12:58 32.731256 -117.184379 104 32ft 18kts
12-Sep-20 12:59 32.730140 -117.179781 105 32ft 18kts
12-Sep-20 13:00 32.729711 -117.176988 58 32ft 15kts
12-Sep-20 13:01 32.737687 -117.207306 284 437ft 248kts
12-Sep-20 13:02 32.778965 -117.286185 328 2580ft 275kts
12-Sep-20 13:03 32.827081 -117.349216 300 5615ft 278kts
12-Sep-20 13:04 32.865525 -117.421552 306 9321ft 293kts
12-Sep-20 13:05 32.914823 -117.498807 309 11937ft 343kts
12-Sep-20 13:06 32.979454 -117.599411 307 14204ft 409kts
12-Sep-20 13:07 33.050210 -117.709987 307 17299ft 426kts
12-Sep-20 13:08 33.135469 -117.808208 321 20635ft 435kts
12-Sep-20 13:09 33.232532 -117.897722 320 22994ft 443kts
12-Sep-20 13:10 33.349276 -117.920400 20 25261ft 462kts
12-Sep-20 13:11 33.460213 -117.872653 13 28175ft 446kts
12-Sep-20 13:12 33.573560 -117.837027 12 29924ft 458kts
12-Sep-20 13:13 33.688441 -117.808286 3 31697ft 463kts
12-Sep-20 13:14 33.803574 -117.801124 0 33020ft 456kts
12-Sep-20 13:15 33.925681 -117.792032 2 33011ft 477kts
12-Sep-20 13:16 34.046016 -117.777453 9 33024ft 498kts
12-Sep-20 13:17 34.162345 -117.689755 46 33036ft 519kts
12-Sep-20 13:18 34.237812 -117.564122 52 33038ft 522kts
12-Sep-20 13:19 34.325787 -117.425158 48 33093ft 519kts
12-Sep-20 13:20 34.418307 -117.291576 48 33130ft 518kts
12-Sep-20 13:21 34.504275 -117.164117 49 33117ft 519kts
12-Sep-20 13:22 34.591056 -117.035033 48 33139ft 519kts
12-Sep-20 13:23 34.683131 -116.898102 48 32868ft 525kts
12-Sep-20 13:24 34.772541 -116.764995 48 30747ft 525kts
12-Sep-20 13:25 34.864114 -116.632437 44 28639ft 530kts
12-Sep-20 13:26 34.977030 -116.520727 34 26474ft 535kts
12-Sep-20 13:27 35.094070 -116.413642 39 24111ft 527kts
12-Sep-20 13:28 35.197218 -116.291598 47 24086ft 520kts
12-Sep-20 13:29 35.289940 -116.170429 46 23084ft 478kts
12-Sep-20 13:30 35.379941 -116.057065 45 20102ft 456kts
12-Sep-20 13:31 35.466256 -115.948260 46 17078ft 433kts
12-Sep-20 13:32 35.551760 -115.840317 46 14098ft 438kts
12-Sep-20 13:33 35.631317 -115.739940 47 12993ft 363kts
12-Sep-20 13:34 35.691064 -115.662782 47 13057ft 299kts
12-Sep-20 13:35 35.751684 -115.593541 28 13055ft 295kts
12-Sep-20 13:36 35.834667 -115.574197 5 13074ft 309kts
12-Sep-20 13:37 35.920809 -115.569739 7 13044ft 309kts
12-Sep-20 13:38 35.987924 -115.515906 60 13033ft 296kts
12-Sep-20 13:39 36.016689 -115.426389 72 12969ft 273kts
12-Sep-20 13:40 36.028244 -115.335236 92 11000ft 273kts
12-Sep-20 13:41 36.021533 -115.243216 95 9643ft 267kts
12-Sep-20 13:42 36.015058 -115.152468 94 8418ft 258kts
12-Sep-20 13:43 36.009407 -115.066711 94 7175ft 242kts
12-Sep-20 13:44 36.004343 -114.984313 94 5836ft 242kts
12-Sep-20 13:45 36.008720 -114.904899 70 5034ft 225kts
12-Sep-20 13:46 36.056021 -114.888968 307 5011ft 220kts
12-Sep-20 13:47 36.073205 -114.954759 270 4913ft 211kts
12-Sep-20 13:48 36.073504 -115.019821 270 3875ft 164kts
12-Sep-20 13:49 36.073624 -115.075876 269 3020ft 163kts
12-Sep-20 13:50 36.073503 -115.131190 269 2233ft 154kts
12-Sep-20 13:51 36.074496 -115.145401 298 2196ft 9kts
12-Sep-20 13:52 36.075791 -115.146427 2 2196ft 7kts
12-Sep-20 13:53 36.079547 -115.147642 339 2196ft 23kts
12-Sep-20 13:54 36.079969 -115.147662 64 2196ft 2kts

Navigation Log

Ident Type
Flight plan parsing failed, navigation log unavailable